Terminal Aerodrome Forecast
Issued by NWS Charleston, WV

Current Version | Previous Version | Graphics & Text | Print | Product List | Glossary On
Versions: 1 2 3 4 5 6 7 8 9 10 11 12 13 14 15 16 17 18 19 20 21 22 23 24 25 26
611
FTUS41 KRLX 300520
TAFEKN
TAF
KEKN 300520Z 3006/3106 VRB03KT P6SM SCT150
     FM301200 15008G15KT P6SM BKN080
     FM302200 16008G17KT P6SM BKN045=

USA.gov is the U.S. government's official web portal to all federal, state and local government web resources and services.